createdAt,value
2017-12-23T00:01:44.708Z,33.53
2017-12-23T00:04:13.610Z,32.47
2017-12-23T00:06:42.503Z,33.45
2017-12-23T00:09:11.488Z,35.67
2017-12-23T00:11:40.389Z,29.35
2017-12-23T00:14:09.400Z,30.98
2017-12-23T00:16:37.520Z,32.03
2017-12-23T00:19:06.412Z,28.00
2017-12-23T00:21:35.299Z,30.10
2017-12-23T00:24:04.215Z,28.98
2017-12-23T00:26:32.340Z,31.70
2017-12-23T00:29:00.480Z,28.17
2017-12-23T00:31:28.650Z,29.58
2017-12-23T00:33:56.807Z,27.00
2017-12-23T00:36:24.935Z,29.33
2017-12-23T00:38:53.060Z,32.97
2017-12-23T00:41:21.207Z,32.65
2017-12-23T00:43:49.327Z,26.90
2017-12-23T00:46:17.467Z,31.90
2017-12-23T00:48:46.356Z,29.35
2017-12-23T00:51:15.256Z,26.37
2017-12-23T00:53:44.156Z,26.45
2017-12-23T00:56:13.074Z,29.73
2017-12-23T00:58:41.199Z,33.28
2017-12-23T01:01:09.335Z,25.85
2017-12-23T01:03:37.485Z,27.75
2017-12-23T01:06:05.605Z,25.02
2017-12-23T01:08:33.759Z,21.37
2017-12-23T01:11:01.892Z,21.60
2017-12-23T01:13:30.809Z,26.10
2017-12-23T01:15:58.943Z,25.85
2017-12-23T01:18:27.065Z,20.25
2017-12-23T01:20:55.207Z,24.98
2017-12-23T01:23:24.108Z,22.83
2017-12-23T01:25:52.506Z,18.73
2017-12-23T01:28:20.640Z,22.67
2017-12-23T01:30:48.781Z,21.98
2017-12-23T01:33:16.915Z,21.02
2017-12-23T01:35:45.085Z,19.00
2017-12-23T01:38:13.967Z,19.77
2017-12-23T01:40:42.857Z,17.25
2017-12-23T01:43:11.755Z,19.95
2017-12-23T01:45:40.644Z,20.37
2017-12-23T01:48:09.543Z,24.30
2017-12-23T01:50:38.438Z,21.23
2017-12-23T01:53:07.348Z,17.05
2017-12-23T01:55:35.479Z,18.80
2017-12-23T01:58:03.616Z,18.30
2017-12-23T02:00:31.747Z,16.05
2017-12-23T02:03:00.632Z,15.15
2017-12-23T02:05:29.540Z,16.80
2017-12-23T02:07:57.669Z,15.88
2017-12-23T02:10:25.807Z,17.48
2017-12-23T02:12:53.952Z,17.80
2017-12-23T02:15:22.828Z,21.33
2017-12-23T02:17:51.736Z,15.27
2017-12-23T02:20:19.884Z,16.87
2017-12-23T02:22:48.061Z,19.62
2017-12-23T02:25:16.186Z,17.90
2017-12-23T02:27:44.329Z,20.08
2017-12-23T02:30:13.221Z,19.80
2017-12-23T02:32:42.112Z,18.40
2017-12-23T02:35:11.021Z,16.70
2017-12-23T02:37:39.157Z,16.83
2017-12-23T02:40:07.301Z,18.02
2017-12-23T02:42:35.423Z,18.35
2017-12-23T02:45:04.319Z,20.65
2017-12-23T02:47:33.215Z,21.70
2017-12-23T02:50:01.349Z,20.40
2017-12-23T02:52:29.496Z,20.17
2017-12-23T02:54:57.644Z,20.83
2017-12-23T02:57:25.756Z,19.70
2017-12-23T02:59:53.891Z,22.70
2017-12-23T03:02:22.009Z,23.05
2017-12-23T03:04:50.142Z,22.58
2017-12-23T03:07:18.267Z,22.37
2017-12-23T03:09:46.389Z,21.35
2017-12-23T03:12:14.558Z,22.87
2017-12-23T03:14:42.680Z,23.27
2017-12-23T03:17:10.843Z,20.60
2017-12-23T03:19:38.960Z,21.27
2017-12-23T03:22:07.080Z,19.70
2017-12-23T03:24:35.226Z,22.85
2017-12-23T03:27:03.341Z,24.08
2017-12-23T03:29:31.520Z,20.50
2017-12-23T03:31:59.665Z,21.30
2017-12-23T03:34:27.787Z,21.37
2017-12-23T03:36:56.692Z,20.45
2017-12-23T03:39:24.816Z,21.80
2017-12-23T03:41:52.948Z,20.70
2017-12-23T03:44:21.081Z,20.10
2017-12-23T03:46:49.209Z,19.25
2017-12-23T03:49:17.595Z,20.15
2017-12-23T03:51:45.707Z,23.92
2017-12-23T03:54:13.846Z,21.10
2017-12-23T03:56:41.971Z,21.55
2017-12-23T03:59:10.862Z,21.95
2017-12-23T04:01:39.739Z,21.90
2017-12-23T04:04:08.770Z,21.87
2017-12-23T04:06:36.896Z,20.05
2017-12-23T04:09:05.022Z,19.77
2017-12-23T04:11:33.166Z,25.05
2017-12-23T04:14:02.036Z,22.83
2017-12-23T04:16:30.164Z,22.48
2017-12-23T04:18:59.084Z,29.35
2017-12-23T04:21:27.197Z,23.98
2017-12-23T04:23:56.075Z,23.58
2017-12-23T04:26:25.001Z,22.75
2017-12-23T04:28:53.113Z,22.27
2017-12-23T04:31:21.242Z,20.73
2017-12-23T04:33:49.380Z,22.10
2017-12-23T04:36:18.265Z,19.20
2017-12-23T04:38:46.403Z,18.75
2017-12-23T04:41:14.546Z,17.58
2017-12-23T04:43:42.663Z,20.23
2017-12-23T04:46:10.776Z,17.37
2017-12-23T04:48:38.916Z,17.50
2017-12-23T04:51:07.027Z,15.93
2017-12-23T04:53:35.142Z,16.67
2017-12-23T04:56:03.305Z,15.65
2017-12-23T04:58:32.200Z,16.42
2017-12-23T05:01:00.315Z,16.50
2017-12-23T05:03:29.239Z,19.45
2017-12-23T05:05:57.380Z,17.00
2017-12-23T05:08:26.257Z,18.42
2017-12-23T05:10:54.479Z,16.75
2017-12-23T05:13:22.592Z,18.40
2017-12-23T05:15:50.722Z,17.55
2017-12-23T05:18:18.864Z,17.37
2017-12-23T05:20:47.744Z,17.87
2017-12-23T05:23:15.887Z,18.80
2017-12-23T05:25:44.045Z,16.98
2017-12-23T05:28:12.183Z,18.42
2017-12-23T05:30:41.115Z,17.87
2017-12-23T05:33:09.239Z,19.50
2017-12-23T05:35:38.146Z,18.00
2017-12-23T05:38:06.278Z,19.60
2017-12-23T05:40:34.420Z,18.52
2017-12-23T05:43:02.540Z,17.77
2017-12-23T05:45:30.652Z,17.37
2017-12-23T05:47:58.791Z,18.33
2017-12-23T05:50:27.691Z,16.52
2017-12-23T05:52:56.576Z,19.35
2017-12-23T05:55:25.498Z,15.77
2017-12-23T05:57:53.624Z,16.73
2017-12-23T06:00:21.739Z,17.00
2017-12-23T06:02:49.883Z,16.52
2017-12-23T06:05:18.769Z,16.02
2017-12-23T06:07:46.880Z,19.23
2017-12-23T06:10:15.028Z,16.87
2017-12-23T06:12:43.903Z,18.87
2017-12-23T06:15:12.022Z,18.30
2017-12-23T06:17:40.188Z,16.30
2017-12-23T06:20:08.328Z,15.93
2017-12-23T06:22:36.428Z,14.43
2017-12-23T06:25:04.578Z,16.40
2017-12-23T06:27:33.469Z,16.35
2017-12-23T06:30:02.352Z,16.27
2017-12-23T06:32:30.500Z,14.98
2017-12-23T06:34:58.657Z,15.05
2017-12-23T06:37:26.781Z,13.93
2017-12-23T06:39:55.676Z,15.48
2017-12-23T06:42:24.560Z,15.48
2017-12-23T06:44:53.447Z,13.25
2017-12-23T06:47:21.605Z,15.32
2017-12-23T06:49:49.713Z,13.48
2017-12-23T06:52:18.588Z,15.43
2017-12-23T06:54:47.510Z,14.10
2017-12-23T06:57:15.634Z,14.35
2017-12-23T06:59:43.751Z,13.90
2017-12-23T07:02:11.899Z,15.48
2017-12-23T07:04:40.020Z,13.73
2017-12-23T07:07:08.156Z,14.23
2017-12-23T07:09:37.073Z,16.23
2017-12-23T07:12:05.191Z,14.57
2017-12-23T07:14:33.313Z,15.40
2017-12-23T07:17:01.448Z,14.52
2017-12-23T07:19:29.567Z,15.75
2017-12-23T07:21:57.687Z,16.37
2017-12-23T07:24:25.823Z,15.05
2017-12-23T07:26:53.948Z,16.10
2017-12-23T07:29:22.071Z,16.87
2017-12-23T07:31:50.220Z,16.50
2017-12-23T07:34:18.361Z,14.25
2017-12-23T07:36:46.472Z,15.18
2017-12-23T07:39:14.852Z,18.05
2017-12-23T07:41:42.977Z,15.27
2017-12-23T07:44:11.116Z,18.80
2017-12-23T07:46:39.260Z,19.65
2017-12-23T07:49:08.145Z,19.25
2017-12-23T07:51:37.072Z,16.33
2017-12-23T07:54:05.215Z,18.87
2017-12-23T07:56:34.103Z,18.17
2017-12-23T07:59:02.996Z,16.60
2017-12-23T08:01:31.899Z,19.15
2017-12-23T08:04:00.028Z,17.73
2017-12-23T08:06:28.156Z,18.45
2017-12-23T08:08:56.321Z,19.00
2017-12-23T08:11:24.455Z,19.92
2017-12-23T08:13:52.561Z,18.02
2017-12-23T08:16:21.479Z,18.17
2017-12-23T08:18:49.627Z,17.75
2017-12-23T08:21:18.507Z,19.75
2017-12-23T08:23:47.534Z,20.15
2017-12-23T08:26:15.640Z,18.73
2017-12-23T08:28:43.772Z,18.83
2017-12-23T08:31:11.909Z,17.73
2017-12-23T08:33:40.021Z,17.58
2017-12-23T08:36:08.196Z,17.08
2017-12-23T08:38:36.344Z,17.08
2017-12-23T08:41:05.243Z,20.92
2017-12-23T08:43:34.123Z,18.35
2017-12-23T08:46:03.076Z,16.65
2017-12-23T08:48:31.201Z,15.75
2017-12-23T08:51:00.081Z,15.90
2017-12-23T08:53:29.000Z,16.33
2017-12-23T08:55:57.120Z,14.82
2017-12-23T08:58:25.260Z,14.45
2017-12-23T09:00:53.424Z,14.00
2017-12-23T09:03:21.561Z,15.70
2017-12-23T09:05:50.476Z,15.52
2017-12-23T09:08:18.624Z,14.10
2017-12-23T09:10:46.751Z,13.80
2017-12-23T09:13:14.880Z,12.75
2017-12-23T09:15:43.797Z,12.32
2017-12-23T09:18:11.932Z,10.95
2017-12-23T09:20:40.048Z,11.38
2017-12-23T09:23:08.208Z,11.10
2017-12-23T09:25:36.328Z,12.00
2017-12-23T09:28:04.451Z,10.90
2017-12-23T09:30:32.618Z,11.23
2017-12-23T09:33:01.507Z,10.27
2017-12-23T09:35:30.404Z,9.48
2017-12-23T09:37:59.332Z,10.10
2017-12-23T09:40:27.444Z,9.38
2017-12-23T09:42:55.583Z,8.90
2017-12-23T09:45:23.782Z,8.10
2017-12-23T09:47:51.937Z,8.63
2017-12-23T09:50:20.065Z,8.10
2017-12-23T09:52:49.084Z,9.40
2017-12-23T09:55:17.204Z,9.18
2017-12-23T09:57:45.336Z,9.23
2017-12-23T10:00:13.481Z,7.45
2017-12-23T10:02:41.629Z,6.35
2017-12-23T10:05:09.773Z,6.68
2017-12-23T10:07:37.945Z,7.28
2017-12-23T10:10:06.091Z,6.95
2017-12-23T10:12:34.213Z,7.75
2017-12-23T10:15:02.352Z,7.28
2017-12-23T10:17:30.473Z,7.22
2017-12-23T10:19:58.609Z,6.85
2017-12-23T10:22:26.749Z,6.55
2017-12-23T10:24:54.874Z,9.20
2017-12-23T10:27:22.997Z,7.37
2017-12-23T10:29:51.132Z,8.00
2017-12-23T10:32:19.246Z,6.78
2017-12-23T10:34:47.364Z,8.15
2017-12-23T10:37:15.603Z,7.28
2017-12-23T10:39:43.728Z,7.20
2017-12-23T10:42:11.835Z,6.95
2017-12-23T10:44:39.963Z,6.80
2017-12-23T10:47:08.084Z,7.97
2017-12-23T10:49:36.207Z,7.12
2017-12-23T10:52:04.348Z,7.80
2017-12-23T10:54:32.487Z,7.90
2017-12-23T10:57:01.375Z,7.40
2017-12-23T10:59:30.273Z,7.20
2017-12-23T11:01:59.163Z,7.53
2017-12-23T11:04:28.052Z,6.43
2017-12-23T11:06:56.964Z,7.53
2017-12-23T11:09:25.078Z,6.97
2017-12-23T11:11:53.685Z,7.28
2017-12-23T11:14:21.829Z,6.55
2017-12-23T11:16:49.948Z,6.00
2017-12-23T11:19:18.825Z,6.93
2017-12-23T11:21:46.980Z,6.62
2017-12-23T11:24:15.108Z,7.07
2017-12-23T11:26:43.224Z,6.40
2017-12-23T11:29:11.358Z,6.20
2017-12-23T11:31:39.476Z,6.43
2017-12-23T11:34:07.604Z,5.37
2017-12-23T11:36:35.757Z,5.35
2017-12-23T11:39:04.640Z,3.47
2017-12-23T11:41:33.546Z,3.25
2017-12-23T11:44:02.446Z,2.87
2017-12-23T11:46:30.627Z,2.08
2017-12-23T11:48:58.748Z,2.80
2017-12-23T11:51:26.900Z,2.50
2017-12-23T11:53:55.028Z,2.80
2017-12-23T11:56:23.910Z,2.37
2017-12-23T11:58:52.833Z,1.67
2017-12-23T12:01:20.948Z,1.67
2017-12-23T12:03:49.067Z,1.40
2017-12-23T12:06:17.213Z,1.50
2017-12-23T12:08:45.341Z,2.05
2017-12-23T12:11:13.468Z,2.00
2017-12-23T12:13:42.381Z,1.92
2017-12-23T12:16:10.509Z,2.00
2017-12-23T12:18:38.620Z,1.65
2017-12-23T12:21:06.770Z,2.25
2017-12-23T12:23:34.927Z,2.58
2017-12-23T12:26:03.040Z,2.22
2017-12-23T12:28:31.176Z,1.95
2017-12-23T12:30:59.295Z,1.65
2017-12-23T12:33:27.414Z,1.92
2017-12-23T12:35:55.560Z,1.75
2017-12-23T12:38:23.699Z,1.80
2017-12-23T12:40:52.609Z,1.60
2017-12-23T12:43:20.795Z,1.80
2017-12-23T12:45:48.924Z,1.80
2017-12-23T12:48:17.804Z,1.50
2017-12-23T12:50:45.988Z,1.35
2017-12-23T12:53:14.868Z,1.55
2017-12-23T12:55:42.984Z,1.45
2017-12-23T12:58:11.127Z,1.45
2017-12-23T13:00:39.248Z,1.52
2017-12-23T13:03:08.136Z,1.77
2017-12-23T13:05:37.551Z,1.40
2017-12-23T13:08:05.735Z,1.20
2017-12-23T13:10:34.169Z,2.20
2017-12-23T13:13:02.321Z,1.92
2017-12-23T13:15:30.436Z,1.60
2017-12-23T13:17:59.402Z,2.37
2017-12-23T13:20:28.352Z,2.12
2017-12-23T13:22:59.439Z,1.98
2017-12-23T13:25:28.342Z,2.50
2017-12-23T13:27:56.467Z,2.60
2017-12-23T13:30:24.611Z,3.35
2017-12-23T13:32:52.750Z,2.60
2017-12-23T13:35:21.652Z,3.70
2017-12-23T13:37:49.796Z,2.55
2017-12-23T13:40:17.958Z,2.47
2017-12-23T13:42:46.087Z,2.70
2017-12-23T13:45:14.206Z,3.35
2017-12-23T13:47:42.339Z,2.50
2017-12-23T13:50:10.456Z,3.28
2017-12-23T13:52:38.607Z,2.55
2017-12-23T13:55:06.740Z,2.90
2017-12-23T13:57:34.868Z,2.40
2017-12-23T14:00:03.001Z,2.55
2017-12-23T14:02:31.145Z,2.55
2017-12-23T14:05:00.059Z,2.42
2017-12-23T14:07:28.964Z,2.90
2017-12-23T14:09:57.121Z,3.03
2017-12-23T14:12:25.232Z,3.05
2017-12-23T14:14:53.343Z,2.40
2017-12-23T14:17:22.276Z,2.60
2017-12-23T14:19:50.399Z,3.47
2017-12-23T14:22:19.309Z,2.55
2017-12-23T14:24:48.230Z,2.12
2017-12-23T14:27:16.348Z,2.92
2017-12-23T14:29:44.462Z,2.90
2017-12-23T14:32:12.634Z,3.05
2017-12-23T14:34:40.745Z,3.10
2017-12-23T14:37:08.865Z,3.00
2017-12-23T14:39:37.787Z,4.90
2017-12-23T14:42:05.916Z,4.00
2017-12-23T14:44:34.819Z,4.95
2017-12-23T14:47:03.738Z,4.15
2017-12-23T14:49:31.872Z,2.87
2017-12-23T14:52:00.749Z,3.55
2017-12-23T14:54:28.916Z,2.90
2017-12-23T14:56:57.082Z,3.15
2017-12-23T14:59:25.208Z,3.25
2017-12-23T15:01:53.348Z,2.80
2017-12-23T15:04:21.484Z,3.00
2017-12-23T15:06:49.592Z,3.90
2017-12-23T15:09:17.782Z,3.40
2017-12-23T15:11:45.879Z,3.58
2017-12-23T15:14:14.028Z,2.95
2017-12-23T15:16:42.943Z,2.95
2017-12-23T15:19:11.093Z,3.85
2017-12-23T15:21:39.981Z,3.40
2017-12-23T15:24:08.876Z,3.55
2017-12-23T15:26:37.787Z,4.12
2017-12-23T15:29:05.936Z,2.97
2017-12-23T15:31:34.081Z,3.75
2017-12-23T15:34:02.201Z,4.07
2017-12-23T15:36:30.328Z,4.00
2017-12-23T15:38:58.503Z,4.70
2017-12-23T15:41:26.626Z,4.25
2017-12-23T15:43:54.752Z,4.18
2017-12-23T15:46:22.892Z,4.20
2017-12-23T15:48:51.047Z,4.15
2017-12-23T15:51:19.168Z,5.35
2017-12-23T15:53:47.320Z,4.40
2017-12-23T15:56:16.224Z,4.90
2017-12-23T15:58:44.441Z,3.40
2017-12-23T16:01:13.361Z,3.35
2017-12-23T16:03:41.491Z,3.55
2017-12-23T16:06:09.621Z,4.00
2017-12-23T16:08:37.774Z,3.45
2017-12-23T16:11:05.892Z,4.10
2017-12-23T16:13:33.997Z,4.40
2017-12-23T16:16:02.900Z,3.97
2017-12-23T16:18:31.774Z,4.60
2017-12-23T16:21:00.684Z,3.90
2017-12-23T16:23:29.616Z,3.90
2017-12-23T16:25:57.729Z,3.67
2017-12-23T16:28:26.633Z,4.68
2017-12-23T16:30:55.577Z,5.37
2017-12-23T16:33:23.713Z,5.37
2017-12-23T16:35:51.973Z,6.28
2017-12-23T16:38:20.901Z,5.45
2017-12-23T16:40:49.025Z,6.28
2017-12-23T16:43:17.152Z,6.20
2017-12-23T16:45:45.312Z,6.85
2017-12-23T16:48:13.443Z,5.78
2017-12-23T16:50:41.571Z,7.47
2017-12-23T16:53:09.715Z,5.85
2017-12-23T16:55:40.937Z,6.30
2017-12-23T16:58:09.099Z,5.30
2017-12-23T17:00:37.956Z,5.22
2017-12-23T17:03:06.083Z,5.93
2017-12-23T17:05:34.988Z,6.20
2017-12-23T17:08:06.712Z,4.68
2017-12-23T17:10:38.547Z,5.80
2017-12-23T17:13:06.656Z,6.12
2017-12-23T17:15:34.814Z,5.62
2017-12-23T17:18:03.073Z,5.53
2017-12-23T17:20:36.183Z,6.20
2017-12-23T17:23:05.420Z,5.87
2017-12-23T17:25:36.935Z,4.80
2017-12-23T17:28:06.561Z,5.62
2017-12-23T17:30:34.729Z,6.65
2017-12-23T17:33:05.004Z,6.45
2017-12-23T17:35:33.856Z,6.30
2017-12-23T17:38:06.052Z,6.30
2017-12-23T17:40:36.269Z,5.97
2017-12-23T17:43:05.265Z,6.78
2017-12-23T17:45:36.871Z,6.45
2017-12-23T17:48:09.007Z,7.75
2017-12-23T17:50:40.050Z,7.90
2017-12-23T17:53:08.255Z,7.57
2017-12-23T17:55:38.119Z,6.55
2017-12-23T17:58:07.016Z,8.25
2017-12-23T18:00:37.888Z,7.60
2017-12-23T18:03:07.857Z,7.90
2017-12-23T18:05:36.908Z,8.38
2017-12-23T18:08:10.618Z,7.43
2017-12-23T18:10:40.841Z,7.10
2017-12-23T18:13:09.721Z,5.85
2017-12-23T18:15:38.778Z,6.15
2017-12-23T18:18:07.548Z,6.12
2017-12-23T18:20:39.749Z,5.47
2017-12-23T18:23:09.960Z,6.60
2017-12-23T18:25:41.696Z,7.30
2017-12-23T18:28:12.580Z,6.65
2017-12-23T18:30:41.473Z,7.03
2017-12-23T18:33:10.384Z,6.07
2017-12-23T18:35:44.054Z,6.47
2017-12-23T18:38:12.972Z,6.90
2017-12-23T18:40:44.234Z,6.70
2017-12-23T18:43:13.185Z,6.28
2017-12-23T18:45:42.909Z,6.05
2017-12-23T18:48:12.458Z,6.43
2017-12-23T18:50:42.173Z,6.70
2017-12-23T18:53:10.317Z,6.15
2017-12-23T18:55:38.464Z,5.30
2017-12-23T18:58:06.572Z,5.75
2017-12-23T19:00:34.721Z,5.57
2017-12-23T19:03:03.605Z,5.50
2017-12-23T19:05:32.509Z,5.10
2017-12-23T19:08:01.414Z,5.32
2017-12-23T19:10:29.547Z,4.90
2017-12-23T19:12:57.709Z,5.68
2017-12-23T19:15:25.853Z,5.62
2017-12-23T19:17:53.975Z,5.68
2017-12-23T19:20:22.117Z,6.22
2017-12-23T19:22:50.249Z,7.07
2017-12-23T19:25:18.449Z,8.07
2017-12-23T19:27:46.585Z,6.25
2017-12-23T19:30:15.493Z,5.95
2017-12-23T19:32:43.641Z,5.85
2017-12-23T19:35:11.748Z,6.87
2017-12-23T19:37:39.900Z,6.90
2017-12-23T19:40:08.810Z,5.43
2017-12-23T19:42:37.681Z,5.85
2017-12-23T19:45:06.581Z,6.00
2017-12-23T19:47:37.382Z,5.70
2017-12-23T19:50:05.565Z,6.03
2017-12-23T19:52:37.103Z,5.53
2017-12-23T19:55:06.875Z,5.68
2017-12-23T19:57:38.658Z,6.25
2017-12-23T20:00:09.162Z,5.32
2017-12-23T20:02:43.207Z,6.07
2017-12-23T20:05:39.668Z,6.37
2017-12-23T20:08:07.892Z,6.10
2017-12-23T20:10:36.037Z,6.47
2017-12-23T20:13:09.532Z,5.05
2017-12-23T20:15:38.543Z,6.68
2017-12-23T20:18:06.721Z,5.90
2017-12-23T20:20:34.888Z,6.47
2017-12-23T20:23:03.868Z,5.10
2017-12-23T20:25:33.013Z,5.05
2017-12-23T20:28:06.248Z,5.78
2017-12-23T20:30:35.364Z,6.05
2017-12-23T20:33:03.573Z,6.68
2017-12-23T20:38:09.700Z,6.75
2017-12-23T20:40:37.894Z,7.20
2017-12-23T20:43:06.784Z,6.75
2017-12-23T20:45:37.581Z,7.05
2017-12-23T20:50:41.983Z,7.22
2017-12-23T20:53:10.188Z,6.25
2017-12-23T20:55:38.316Z,5.82
2017-12-23T20:58:06.448Z,6.62
2017-12-23T21:00:34.578Z,6.82
2017-12-23T22:27:16.317Z,6.65
2017-12-23T22:29:45.252Z,7.10
2017-12-23T22:32:13.417Z,5.65
2017-12-23T22:34:41.552Z,6.72
2017-12-23T22:37:14.479Z,8.23
2017-12-23T22:39:43.713Z,7.00
2017-12-23T22:45:32.360Z,6.93
2017-12-23T22:48:04.171Z,6.87
2017-12-23T22:50:34.642Z,7.22
2017-12-23T22:53:03.770Z,6.32
2017-12-23T22:55:35.501Z,6.03
2017-12-23T22:58:03.633Z,6.45
2017-12-23T23:00:35.407Z,6.30
2017-12-23T23:03:07.311Z,5.70
2017-12-23T23:05:36.299Z,8.25
2017-12-23T23:08:06.881Z,6.18
2017-12-23T23:10:36.109Z,6.40
2017-12-23T23:13:05.390Z,6.43
2017-12-23T23:15:40.709Z,7.32
2017-12-23T23:18:10.708Z,6.18
2017-12-23T23:20:41.025Z,5.45
2017-12-23T23:23:15.088Z,7.00
2017-12-23T23:25:45.912Z,6.50
2017-12-23T23:31:21.721Z,7.07
2017-12-23T23:33:52.646Z,5.65
2017-12-23T23:36:22.411Z,7.85
2017-12-23T23:38:52.866Z,5.95
2017-12-23T23:41:21.708Z,5.40
2017-12-23T23:43:50.863Z,6.25
2017-12-23T23:46:21.180Z,6.28
2017-12-23T23:48:52.472Z,5.95
2017-12-23T23:51:23.473Z,6.28
2017-12-23T23:53:54.892Z,7.00
2017-12-23T23:56:25.283Z,7.05
2017-12-23T23:58:56.039Z,7.25
